sensor_id;sensor_type;location;lat;lon;timestamp;P1;durP1;ratioP1;P2;durP2;ratioP2
11921;SDS011;6021;51.182;3.160;2023-08-31T00:00:10;6.97;;;6.30;;
11921;SDS011;6021;51.182;3.160;2023-08-31T00:02:39;6.77;;;6.17;;
11921;SDS011;6021;51.182;3.160;2023-08-31T00:05:08;6.43;;;5.93;;
11921;SDS011;6021;51.182;3.160;2023-08-31T00:07:37;6.37;;;5.80;;
11921;SDS011;6021;51.182;3.160;2023-08-31T00:10:05;6.70;;;5.93;;
11921;SDS011;6021;51.182;3.160;2023-08-31T00:12:35;6.80;;;6.20;;
11921;SDS011;6021;51.182;3.160;2023-08-31T00:15:04;7.07;;;5.93;;
11921;SDS011;6021;51.182;3.160;2023-08-31T00:17:33;6.30;;;5.70;;
11921;SDS011;6021;51.182;3.160;2023-08-31T00:20:01;6.30;;;5.70;;
11921;SDS011;6021;51.182;3.160;2023-08-31T00:22:31;5.83;;;5.33;;
11921;SDS011;6021;51.182;3.160;2023-08-31T00:25:00;6.17;;;5.27;;
11921;SDS011;6021;51.182;3.160;2023-08-31T00:27:28;6.33;;;5.40;;
11921;SDS011;6021;51.182;3.160;2023-08-31T00:29:56;6.10;;;5.50;;
11921;SDS011;6021;51.182;3.160;2023-08-31T00:32:25;6.33;;;5.70;;
11921;SDS011;6021;51.182;3.160;2023-08-31T00:34:53;7.40;;;6.10;;
11921;SDS011;6021;51.182;3.160;2023-08-31T00:37:21;8.93;;;5.90;;
11921;SDS011;6021;51.182;3.160;2023-08-31T00:39:50;7.70;;;5.97;;
11921;SDS011;6021;51.182;3.160;2023-08-31T00:42:19;7.77;;;5.93;;
11921;SDS011;6021;51.182;3.160;2023-08-31T00:44:48;6.77;;;5.77;;
11921;SDS011;6021;51.182;3.160;2023-08-31T00:47:16;6.13;;;5.57;;
11921;SDS011;6021;51.182;3.160;2023-08-31T00:49:45;5.47;;;5.07;;
11921;SDS011;6021;51.182;3.160;2023-08-31T00:52:14;9.37;;;6.30;;
11921;SDS011;6021;51.182;3.160;2023-08-31T00:54:43;6.00;;;5.50;;
11921;SDS011;6021;51.182;3.160;2023-08-31T00:57:12;7.47;;;6.00;;
11921;SDS011;6021;51.182;3.160;2023-08-31T00:59:40;6.87;;;5.63;;
11921;SDS011;6021;51.182;3.160;2023-08-31T01:02:14;6.63;;;5.93;;
11921;SDS011;6021;51.182;3.160;2023-08-31T01:04:50;7.03;;;5.60;;
11921;SDS011;6021;51.182;3.160;2023-08-31T01:07:30;7.03;;;6.27;;
11921;SDS011;6021;51.182;3.160;2023-08-31T01:15:18;7.67;;;5.80;;
11921;SDS011;6021;51.182;3.160;2023-08-31T01:17:48;7.20;;;6.50;;
11921;SDS011;6021;51.182;3.160;2023-08-31T01:20:20;9.47;;;6.83;;
11921;SDS011;6021;51.182;3.160;2023-08-31T01:22:57;6.33;;;5.73;;
11921;SDS011;6021;51.182;3.160;2023-08-31T01:25:27;6.20;;;5.60;;
11921;SDS011;6021;51.182;3.160;2023-08-31T01:27:58;6.37;;;5.73;;
11921;SDS011;6021;51.182;3.160;2023-08-31T01:30:32;5.60;;;5.10;;
11921;SDS011;6021;51.182;3.160;2023-08-31T01:33:01;5.40;;;4.90;;
11921;SDS011;6021;51.182;3.160;2023-08-31T01:35:30;7.67;;;5.90;;
11921;SDS011;6021;51.182;3.160;2023-08-31T01:38:02;6.43;;;5.83;;
11921;SDS011;6021;51.182;3.160;2023-08-31T01:43:23;7.00;;;6.30;;
11921;SDS011;6021;51.182;3.160;2023-08-31T01:45:52;7.80;;;6.00;;
11921;SDS011;6021;51.182;3.160;2023-08-31T01:48:20;6.53;;;5.57;;
11921;SDS011;6021;51.182;3.160;2023-08-31T01:50:49;7.73;;;5.43;;
11921;SDS011;6021;51.182;3.160;2023-08-31T01:53:17;8.40;;;6.00;;
11921;SDS011;6021;51.182;3.160;2023-08-31T01:55:45;5.63;;;5.23;;
11921;SDS011;6021;51.182;3.160;2023-08-31T01:58:14;8.00;;;5.50;;
11921;SDS011;6021;51.182;3.160;2023-08-31T02:00:42;5.93;;;5.07;;
11921;SDS011;6021;51.182;3.160;2023-08-31T02:03:11;5.80;;;5.20;;
11921;SDS011;6021;51.182;3.160;2023-08-31T02:05:39;5.63;;;5.10;;
11921;SDS011;6021;51.182;3.160;2023-08-31T02:08:07;6.53;;;5.13;;
11921;SDS011;6021;51.182;3.160;2023-08-31T02:10:36;5.47;;;4.93;;
11921;SDS011;6021;51.182;3.160;2023-08-31T02:13:04;5.37;;;4.87;;
11921;SDS011;6021;51.182;3.160;2023-08-31T02:15:32;5.10;;;4.70;;
11921;SDS011;6021;51.182;3.160;2023-08-31T02:18:01;5.37;;;4.80;;
11921;SDS011;6021;51.182;3.160;2023-08-31T02:20:29;5.10;;;4.53;;
11921;SDS011;6021;51.182;3.160;2023-08-31T02:22:58;8.53;;;5.50;;
11921;SDS011;6021;51.182;3.160;2023-08-31T02:25:26;5.60;;;5.10;;
11921;SDS011;6021;51.182;3.160;2023-08-31T02:27:54;5.37;;;4.87;;
11921;SDS011;6021;51.182;3.160;2023-08-31T02:30:23;6.17;;;5.60;;
11921;SDS011;6021;51.182;3.160;2023-08-31T02:32:51;6.20;;;4.80;;
11921;SDS011;6021;51.182;3.160;2023-08-31T02:35:19;7.87;;;5.30;;
11921;SDS011;6021;51.182;3.160;2023-08-31T02:37:48;7.07;;;5.40;;
11921;SDS011;6021;51.182;3.160;2023-08-31T02:40:16;5.80;;;5.20;;
11921;SDS011;6021;51.182;3.160;2023-08-31T02:42:44;7.57;;;5.90;;
11921;SDS011;6021;51.182;3.160;2023-08-31T02:45:13;9.80;;;5.90;;
11921;SDS011;6021;51.182;3.160;2023-08-31T02:47:42;8.10;;;5.80;;
11921;SDS011;6021;51.182;3.160;2023-08-31T02:50:11;7.90;;;5.30;;
11921;SDS011;6021;51.182;3.160;2023-08-31T02:52:40;7.23;;;5.30;;
11921;SDS011;6021;51.182;3.160;2023-08-31T02:55:08;6.53;;;5.27;;
11921;SDS011;6021;51.182;3.160;2023-08-31T02:57:37;8.47;;;5.30;;
11921;SDS011;6021;51.182;3.160;2023-08-31T03:00:05;6.53;;;5.03;;
11921;SDS011;6021;51.182;3.160;2023-08-31T03:02:35;6.07;;;4.70;;
11921;SDS011;6021;51.182;3.160;2023-08-31T03:05:04;9.30;;;5.27;;
11921;SDS011;6021;51.182;3.160;2023-08-31T03:07:33;5.00;;;4.50;;
11921;SDS011;6021;51.182;3.160;2023-08-31T03:10:02;6.17;;;4.90;;
11921;SDS011;6021;51.182;3.160;2023-08-31T03:12:31;9.33;;;4.97;;
11921;SDS011;6021;51.182;3.160;2023-08-31T03:14:59;5.23;;;4.60;;
11921;SDS011;6021;51.182;3.160;2023-08-31T03:17:28;6.53;;;4.57;;
11921;SDS011;6021;51.182;3.160;2023-08-31T03:19:56;5.73;;;4.80;;
11921;SDS011;6021;51.182;3.160;2023-08-31T03:22:24;6.53;;;5.23;;
11921;SDS011;6021;51.182;3.160;2023-08-31T03:24:53;5.83;;;5.23;;
11921;SDS011;6021;51.182;3.160;2023-08-31T03:27:21;5.83;;;4.97;;
11921;SDS011;6021;51.182;3.160;2023-08-31T03:29:50;6.83;;;5.20;;
11921;SDS011;6021;51.182;3.160;2023-08-31T03:32:18;6.77;;;5.40;;
11921;SDS011;6021;51.182;3.160;2023-08-31T03:34:47;7.83;;;5.20;;
11921;SDS011;6021;51.182;3.160;2023-08-31T03:37:15;6.30;;;5.20;;
11921;SDS011;6021;51.182;3.160;2023-08-31T03:39:44;6.30;;;5.10;;
11921;SDS011;6021;51.182;3.160;2023-08-31T03:42:14;6.53;;;5.27;;
11921;SDS011;6021;51.182;3.160;2023-08-31T03:44:43;5.47;;;4.90;;
11921;SDS011;6021;51.182;3.160;2023-08-31T03:47:11;5.77;;;5.17;;
11921;SDS011;6021;51.182;3.160;2023-08-31T03:49:40;5.90;;;5.30;;
11921;SDS011;6021;51.182;3.160;2023-08-31T03:52:08;8.73;;;5.80;;
11921;SDS011;6021;51.182;3.160;2023-08-31T03:54:36;7.10;;;6.00;;
11921;SDS011;6021;51.182;3.160;2023-08-31T03:57:04;5.90;;;5.30;;
11921;SDS011;6021;51.182;3.160;2023-08-31T03:59:33;8.20;;;5.90;;
11921;SDS011;6021;51.182;3.160;2023-08-31T04:02:01;10.23;;;5.47;;
11921;SDS011;6021;51.182;3.160;2023-08-31T04:04:30;6.67;;;5.73;;
11921;SDS011;6021;51.182;3.160;2023-08-31T04:06:58;8.20;;;5.63;;
11921;SDS011;6021;51.182;3.160;2023-08-31T04:09:27;7.87;;;5.53;;
11921;SDS011;6021;51.182;3.160;2023-08-31T04:11:56;6.80;;;5.80;;
11921;SDS011;6021;51.182;3.160;2023-08-31T04:14:27;9.50;;;6.20;;
11921;SDS011;6021;51.182;3.160;2023-08-31T04:16:56;8.30;;;5.90;;
11921;SDS011;6021;51.182;3.160;2023-08-31T04:19:24;8.03;;;6.13;;
11921;SDS011;6021;51.182;3.160;2023-08-31T04:21:53;6.63;;;6.03;;
11921;SDS011;6021;51.182;3.160;2023-08-31T04:24:21;6.07;;;5.33;;
11921;SDS011;6021;51.182;3.160;2023-08-31T04:26:49;6.30;;;5.70;;
11921;SDS011;6021;51.182;3.160;2023-08-31T04:29:18;7.27;;;5.83;;
11921;SDS011;6021;51.182;3.160;2023-08-31T04:31:46;7.73;;;6.00;;
11921;SDS011;6021;51.182;3.160;2023-08-31T04:34:14;6.97;;;5.77;;
11921;SDS011;6021;51.182;3.160;2023-08-31T04:36:43;6.30;;;5.73;;
11921;SDS011;6021;51.182;3.160;2023-08-31T04:39:11;8.43;;;5.90;;
11921;SDS011;6021;51.182;3.160;2023-08-31T04:41:39;9.23;;;6.40;;
11921;SDS011;6021;51.182;3.160;2023-08-31T04:44:07;12.43;;;8.57;;
11921;SDS011;6021;51.182;3.160;2023-08-31T04:46:38;7.40;;;6.63;;
11921;SDS011;6021;51.182;3.160;2023-08-31T04:49:06;8.03;;;6.47;;
11921;SDS011;6021;51.182;3.160;2023-08-31T04:51:35;7.70;;;6.90;;
11921;SDS011;6021;51.182;3.160;2023-08-31T04:54:05;7.43;;;6.40;;
11921;SDS011;6021;51.182;3.160;2023-08-31T04:56:34;7.87;;;6.40;;
11921;SDS011;6021;51.182;3.160;2023-08-31T04:59:02;6.93;;;6.20;;
11921;SDS011;6021;51.182;3.160;2023-08-31T05:01:30;6.83;;;6.20;;
11921;SDS011;6021;51.182;3.160;2023-08-31T05:03:59;7.83;;;6.60;;
11921;SDS011;6021;51.182;3.160;2023-08-31T05:06:27;8.03;;;6.43;;
11921;SDS011;6021;51.182;3.160;2023-08-31T05:08:56;9.07;;;6.70;;
11921;SDS011;6021;51.182;3.160;2023-08-31T05:11:24;7.40;;;6.40;;
11921;SDS011;6021;51.182;3.160;2023-08-31T05:13:52;7.53;;;6.87;;
11921;SDS011;6021;51.182;3.160;2023-08-31T05:16:21;7.03;;;6.33;;
11921;SDS011;6021;51.182;3.160;2023-08-31T05:18:49;7.57;;;6.17;;
11921;SDS011;6021;51.182;3.160;2023-08-31T05:21:17;8.90;;;6.70;;
11921;SDS011;6021;51.182;3.160;2023-08-31T05:23:46;8.17;;;6.80;;
11921;SDS011;6021;51.182;3.160;2023-08-31T05:26:14;8.80;;;6.40;;
11921;SDS011;6021;51.182;3.160;2023-08-31T05:28:42;7.07;;;6.13;;
11921;SDS011;6021;51.182;3.160;2023-08-31T05:31:11;9.07;;;6.90;;
11921;SDS011;6021;51.182;3.160;2023-08-31T05:33:39;12.13;;;7.60;;
11921;SDS011;6021;51.182;3.160;2023-08-31T05:36:07;7.77;;;6.47;;
11921;SDS011;6021;51.182;3.160;2023-08-31T05:38:36;9.47;;;6.97;;
11921;SDS011;6021;51.182;3.160;2023-08-31T05:41:05;6.83;;;6.13;;
11921;SDS011;6021;51.182;3.160;2023-08-31T05:43:37;7.27;;;6.57;;
11921;SDS011;6021;51.182;3.160;2023-08-31T05:46:08;6.73;;;6.13;;
11921;SDS011;6021;51.182;3.160;2023-08-31T05:48:37;7.10;;;6.10;;
11921;SDS011;6021;51.182;3.160;2023-08-31T05:51:05;7.30;;;6.30;;
11921;SDS011;6021;51.182;3.160;2023-08-31T05:53:34;7.20;;;6.47;;
11921;SDS011;6021;51.182;3.160;2023-08-31T05:56:02;7.30;;;6.40;;
11921;SDS011;6021;51.182;3.160;2023-08-31T05:58:31;7.53;;;6.67;;
11921;SDS011;6021;51.182;3.160;2023-08-31T06:01:01;8.07;;;6.47;;
11921;SDS011;6021;51.182;3.160;2023-08-31T06:03:30;9.10;;;6.80;;
11921;SDS011;6021;51.182;3.160;2023-08-31T06:05:59;8.77;;;6.43;;
11921;SDS011;6021;51.182;3.160;2023-08-31T06:08:27;7.93;;;6.80;;
11921;SDS011;6021;51.182;3.160;2023-08-31T06:10:57;8.77;;;6.87;;
11921;SDS011;6021;51.182;3.160;2023-08-31T06:13:25;8.77;;;6.90;;
11921;SDS011;6021;51.182;3.160;2023-08-31T06:15:54;7.83;;;7.10;;
11921;SDS011;6021;51.182;3.160;2023-08-31T06:18:24;8.33;;;7.30;;
11921;SDS011;6021;51.182;3.160;2023-08-31T06:20:52;10.47;;;7.37;;
11921;SDS011;6021;51.182;3.160;2023-08-31T06:23:21;7.73;;;6.83;;
11921;SDS011;6021;51.182;3.160;2023-08-31T06:25:49;9.33;;;7.20;;
11921;SDS011;6021;51.182;3.160;2023-08-31T06:28:18;8.37;;;7.20;;
11921;SDS011;6021;51.182;3.160;2023-08-31T06:30:46;7.53;;;6.90;;
11921;SDS011;6021;51.182;3.160;2023-08-31T06:33:15;9.73;;;6.80;;
11921;SDS011;6021;51.182;3.160;2023-08-31T06:35:47;10.27;;;7.27;;
11921;SDS011;6021;51.182;3.160;2023-08-31T06:38:18;8.27;;;7.30;;
11921;SDS011;6021;51.182;3.160;2023-08-31T06:40:47;8.57;;;7.00;;
11921;SDS011;6021;51.182;3.160;2023-08-31T06:43:15;8.83;;;7.47;;
11921;SDS011;6021;51.182;3.160;2023-08-31T06:45:43;8.20;;;7.17;;
11921;SDS011;6021;51.182;3.160;2023-08-31T06:48:12;10.17;;;7.97;;
11921;SDS011;6021;51.182;3.160;2023-08-31T06:50:40;11.07;;;8.13;;
11921;SDS011;6021;51.182;3.160;2023-08-31T06:53:11;7.80;;;7.07;;
11921;SDS011;6021;51.182;3.160;2023-08-31T06:55:39;8.40;;;7.47;;
11921;SDS011;6021;51.182;3.160;2023-08-31T06:58:08;9.70;;;7.93;;
11921;SDS011;6021;51.182;3.160;2023-08-31T07:00:36;8.27;;;7.50;;
11921;SDS011;6021;51.182;3.160;2023-08-31T07:03:04;9.70;;;7.60;;
11921;SDS011;6021;51.182;3.160;2023-08-31T07:05:33;8.73;;;7.60;;
11921;SDS011;6021;51.182;3.160;2023-08-31T07:08:03;8.97;;;8.10;;
11921;SDS011;6021;51.182;3.160;2023-08-31T07:10:31;9.83;;;8.03;;
11921;SDS011;6021;51.182;3.160;2023-08-31T07:12:59;8.30;;;7.40;;
11921;SDS011;6021;51.182;3.160;2023-08-31T07:15:28;9.03;;;8.13;;
11921;SDS011;6021;51.182;3.160;2023-08-31T07:17:56;10.57;;;7.93;;
11921;SDS011;6021;51.182;3.160;2023-08-31T07:20:28;11.57;;;8.40;;
11921;SDS011;6021;51.182;3.160;2023-08-31T07:22:56;10.10;;;7.90;;
11921;SDS011;6021;51.182;3.160;2023-08-31T07:25:25;9.77;;;8.27;;
11921;SDS011;6021;51.182;3.160;2023-08-31T07:27:55;10.60;;;9.23;;
11921;SDS011;6021;51.182;3.160;2023-08-31T07:30:24;10.90;;;9.03;;
11921;SDS011;6021;51.182;3.160;2023-08-31T07:32:52;11.10;;;8.70;;
11921;SDS011;6021;51.182;3.160;2023-08-31T07:35:20;12.97;;;9.20;;
11921;SDS011;6021;51.182;3.160;2023-08-31T07:37:49;10.50;;;8.40;;
11921;SDS011;6021;51.182;3.160;2023-08-31T07:40:17;10.90;;;8.70;;
11921;SDS011;6021;51.182;3.160;2023-08-31T07:42:46;10.40;;;9.33;;
11921;SDS011;6021;51.182;3.160;2023-08-31T07:45:14;10.23;;;9.23;;
11921;SDS011;6021;51.182;3.160;2023-08-31T07:47:42;10.40;;;9.37;;
11921;SDS011;6021;51.182;3.160;2023-08-31T07:50:11;11.73;;;9.27;;
11921;SDS011;6021;51.182;3.160;2023-08-31T07:52:41;9.83;;;8.83;;
11921;SDS011;6021;51.182;3.160;2023-08-31T07:55:09;10.93;;;9.87;;
11921;SDS011;6021;51.182;3.160;2023-08-31T07:57:38;10.27;;;9.20;;
11921;SDS011;6021;51.182;3.160;2023-08-31T08:00:06;11.67;;;9.33;;
11921;SDS011;6021;51.182;3.160;2023-08-31T08:02:35;10.57;;;9.37;;
11921;SDS011;6021;51.182;3.160;2023-08-31T08:05:03;10.43;;;9.33;;
11921;SDS011;6021;51.182;3.160;2023-08-31T08:07:32;10.47;;;9.17;;
11921;SDS011;6021;51.182;3.160;2023-08-31T08:10:00;9.70;;;8.80;;
11921;SDS011;6021;51.182;3.160;2023-08-31T08:12:38;9.90;;;8.90;;
11921;SDS011;6021;51.182;3.160;2023-08-31T08:15:09;11.93;;;9.37;;
11921;SDS011;6021;51.182;3.160;2023-08-31T08:17:37;10.70;;;9.07;;
11921;SDS011;6021;51.182;3.160;2023-08-31T08:20:06;9.37;;;8.37;;
11921;SDS011;6021;51.182;3.160;2023-08-31T08:22:35;11.20;;;8.50;;
11921;SDS011;6021;51.182;3.160;2023-08-31T08:25:04;10.83;;;8.60;;
11921;SDS011;6021;51.182;3.160;2023-08-31T08:27:33;9.50;;;8.40;;
11921;SDS011;6021;51.182;3.160;2023-08-31T08:30:03;8.67;;;7.70;;
11921;SDS011;6021;51.182;3.160;2023-08-31T08:32:32;11.03;;;8.27;;
11921;SDS011;6021;51.182;3.160;2023-08-31T08:35:01;9.27;;;8.37;;
11921;SDS011;6021;51.182;3.160;2023-08-31T08:37:30;8.97;;;8.03;;
11921;SDS011;6021;51.182;3.160;2023-08-31T08:40:02;8.47;;;7.57;;
11921;SDS011;6021;51.182;3.160;2023-08-31T08:42:35;11.50;;;8.00;;
11921;SDS011;6021;51.182;3.160;2023-08-31T08:45:05;7.33;;;6.67;;
11921;SDS011;6021;51.182;3.160;2023-08-31T08:47:35;7.40;;;6.47;;
11921;SDS011;6021;51.182;3.160;2023-08-31T08:50:04;8.77;;;6.83;;
11921;SDS011;6021;51.182;3.160;2023-08-31T08:52:33;7.03;;;6.33;;
11921;SDS011;6021;51.182;3.160;2023-08-31T08:55:03;7.73;;;6.27;;
11921;SDS011;6021;51.182;3.160;2023-08-31T08:57:33;8.07;;;5.73;;
11921;SDS011;6021;51.182;3.160;2023-08-31T09:00:02;6.00;;;5.40;;
11921;SDS011;6021;51.182;3.160;2023-08-31T09:02:31;6.13;;;5.50;;
11921;SDS011;6021;51.182;3.160;2023-08-31T09:05:00;6.57;;;5.20;;
11921;SDS011;6021;51.182;3.160;2023-08-31T09:07:34;5.93;;;5.30;;
11921;SDS011;6021;51.182;3.160;2023-08-31T09:10:04;6.23;;;5.03;;
11921;SDS011;6021;51.182;3.160;2023-08-31T09:12:35;6.93;;;5.20;;
11921;SDS011;6021;51.182;3.160;2023-08-31T09:15:05;5.77;;;5.10;;
11921;SDS011;6021;51.182;3.160;2023-08-31T09:17:37;5.80;;;4.73;;
11921;SDS011;6021;51.182;3.160;2023-08-31T09:20:08;5.50;;;4.73;;
11921;SDS011;6021;51.182;3.160;2023-08-31T09:22:41;8.10;;;5.13;;
11921;SDS011;6021;51.182;3.160;2023-08-31T09:25:11;6.07;;;4.77;;
11921;SDS011;6021;51.182;3.160;2023-08-31T09:27:39;8.20;;;4.90;;
11921;SDS011;6021;51.182;3.160;2023-08-31T09:30:10;6.10;;;4.60;;
11921;SDS011;6021;51.182;3.160;2023-08-31T09:32:39;6.17;;;5.00;;
11921;SDS011;6021;51.182;3.160;2023-08-31T09:35:08;6.17;;;4.87;;
11921;SDS011;6021;51.182;3.160;2023-08-31T09:37:37;5.87;;;4.70;;
11921;SDS011;6021;51.182;3.160;2023-08-31T09:40:05;6.83;;;4.87;;
11921;SDS011;6021;51.182;3.160;2023-08-31T09:42:37;7.33;;;5.60;;
11921;SDS011;6021;51.182;3.160;2023-08-31T09:45:06;10.17;;;5.73;;
11921;SDS011;6021;51.182;3.160;2023-08-31T09:47:35;6.10;;;5.07;;
11921;SDS011;6021;51.182;3.160;2023-08-31T09:50:04;6.10;;;5.00;;
11921;SDS011;6021;51.182;3.160;2023-08-31T09:52:33;6.23;;;5.57;;
11921;SDS011;6021;51.182;3.160;2023-08-31T09:55:03;6.43;;;4.97;;
11921;SDS011;6021;51.182;3.160;2023-08-31T09:57:32;6.60;;;5.17;;
11921;SDS011;6021;51.182;3.160;2023-08-31T10:00:02;6.07;;;4.80;;
11921;SDS011;6021;51.182;3.160;2023-08-31T10:02:30;5.03;;;4.53;;
11921;SDS011;6021;51.182;3.160;2023-08-31T10:04:59;7.37;;;4.50;;
11921;SDS011;6021;51.182;3.160;2023-08-31T10:07:28;6.47;;;4.47;;
11921;SDS011;6021;51.182;3.160;2023-08-31T10:09:56;6.97;;;4.60;;
11921;SDS011;6021;51.182;3.160;2023-08-31T10:12:25;7.60;;;4.60;;
11921;SDS011;6021;51.182;3.160;2023-08-31T10:14:55;7.10;;;4.30;;
11921;SDS011;6021;51.182;3.160;2023-08-31T10:17:25;6.57;;;4.30;;
11921;SDS011;6021;51.182;3.160;2023-08-31T10:19:54;8.37;;;5.00;;
11921;SDS011;6021;51.182;3.160;2023-08-31T10:22:23;4.87;;;4.40;;
11921;SDS011;6021;51.182;3.160;2023-08-31T10:24:59;5.73;;;4.20;;
11921;SDS011;6021;51.182;3.160;2023-08-31T10:27:42;7.13;;;4.67;;
11921;SDS011;6021;51.182;3.160;2023-08-31T10:35:45;4.80;;;3.93;;
11921;SDS011;6021;51.182;3.160;2023-08-31T10:38:31;7.40;;;4.10;;
11921;SDS011;6021;51.182;3.160;2023-08-31T10:41:17;4.73;;;3.40;;
11921;SDS011;6021;51.182;3.160;2023-08-31T10:43:53;6.90;;;3.73;;
11921;SDS011;6021;51.182;3.160;2023-08-31T10:46:28;5.87;;;3.60;;
11921;SDS011;6021;51.182;3.160;2023-08-31T10:49:01;5.70;;;3.37;;
11921;SDS011;6021;51.182;3.160;2023-08-31T10:51:38;5.53;;;3.40;;
11921;SDS011;6021;51.182;3.160;2023-08-31T10:54:24;6.93;;;3.67;;
11921;SDS011;6021;51.182;3.160;2023-08-31T10:59:44;4.47;;;3.10;;
11921;SDS011;6021;51.182;3.160;2023-08-31T11:02:35;4.60;;;3.10;;
11921;SDS011;6021;51.182;3.160;2023-08-31T11:05:16;5.43;;;3.20;;
11921;SDS011;6021;51.182;3.160;2023-08-31T11:07:49;4.93;;;3.00;;
11921;SDS011;6021;51.182;3.160;2023-08-31T11:10:20;4.93;;;3.03;;
11921;SDS011;6021;51.182;3.160;2023-08-31T11:12:50;6.10;;;3.13;;
11921;SDS011;6021;51.182;3.160;2023-08-31T11:15:21;4.13;;;2.80;;
11921;SDS011;6021;51.182;3.160;2023-08-31T11:17:51;5.23;;;3.30;;
11921;SDS011;6021;51.182;3.160;2023-08-31T11:20:20;6.07;;;3.00;;
11921;SDS011;6021;51.182;3.160;2023-08-31T11:22:52;3.53;;;2.83;;
11921;SDS011;6021;51.182;3.160;2023-08-31T11:25:21;5.47;;;3.00;;
11921;SDS011;6021;51.182;3.160;2023-08-31T11:27:59;4.93;;;3.20;;
11921;SDS011;6021;51.182;3.160;2023-08-31T11:30:24;4.47;;;3.07;;
11921;SDS011;6021;51.182;3.160;2023-08-31T11:32:55;5.87;;;3.07;;
11921;SDS011;6021;51.182;3.160;2023-08-31T11:35:23;4.57;;;3.20;;
11921;SDS011;6021;51.182;3.160;2023-08-31T11:37:55;5.80;;;3.07;;
11921;SDS011;6021;51.182;3.160;2023-08-31T11:40:25;6.70;;;3.20;;
11921;SDS011;6021;51.182;3.160;2023-08-31T11:42:57;6.13;;;3.10;;
11921;SDS011;6021;51.182;3.160;2023-08-31T11:45:30;4.00;;;2.70;;
11921;SDS011;6021;51.182;3.160;2023-08-31T11:47:59;5.03;;;3.20;;
11921;SDS011;6021;51.182;3.160;2023-08-31T11:50:29;4.20;;;2.73;;
11921;SDS011;6021;51.182;3.160;2023-08-31T11:52:59;6.60;;;2.70;;
11921;SDS011;6021;51.182;3.160;2023-08-31T11:55:28;3.50;;;2.70;;
11921;SDS011;6021;51.182;3.160;2023-08-31T11:57:56;3.77;;;2.40;;
11921;SDS011;6021;51.182;3.160;2023-08-31T12:00:24;5.00;;;2.57;;
11921;SDS011;6021;51.182;3.160;2023-08-31T12:02:56;5.03;;;2.40;;
11921;SDS011;6021;51.182;3.160;2023-08-31T12:05:26;4.07;;;2.63;;
11921;SDS011;6021;51.182;3.160;2023-08-31T12:07:55;3.57;;;2.60;;
11921;SDS011;6021;51.182;3.160;2023-08-31T12:10:24;5.07;;;2.73;;
11921;SDS011;6021;51.182;3.160;2023-08-31T12:12:53;3.63;;;2.47;;
11921;SDS011;6021;51.182;3.160;2023-08-31T12:15:22;4.47;;;2.47;;
11921;SDS011;6021;51.182;3.160;2023-08-31T12:17:53;3.53;;;2.50;;
11921;SDS011;6021;51.182;3.160;2023-08-31T12:20:25;4.27;;;2.63;;
11921;SDS011;6021;51.182;3.160;2023-08-31T12:22:54;5.20;;;2.70;;
11921;SDS011;6021;51.182;3.160;2023-08-31T12:25:22;5.63;;;2.50;;
11921;SDS011;6021;51.182;3.160;2023-08-31T12:27:51;6.67;;;2.60;;
11921;SDS011;6021;51.182;3.160;2023-08-31T12:30:20;4.93;;;2.70;;
11921;SDS011;6021;51.182;3.160;2023-08-31T12:32:48;4.47;;;2.47;;
11921;SDS011;6021;51.182;3.160;2023-08-31T12:35:17;6.37;;;2.50;;
11921;SDS011;6021;51.182;3.160;2023-08-31T12:37:45;3.60;;;2.57;;
11921;SDS011;6021;51.182;3.160;2023-08-31T12:40:13;5.50;;;2.87;;
11921;SDS011;6021;51.182;3.160;2023-08-31T12:42:42;4.60;;;2.70;;
11921;SDS011;6021;51.182;3.160;2023-08-31T12:45:10;5.33;;;3.07;;
11921;SDS011;6021;51.182;3.160;2023-08-31T12:47:38;5.00;;;3.17;;
11921;SDS011;6021;51.182;3.160;2023-08-31T12:50:07;6.03;;;3.50;;
11921;SDS011;6021;51.182;3.160;2023-08-31T12:52:35;4.73;;;2.80;;
11921;SDS011;6021;51.182;3.160;2023-08-31T12:55:05;4.20;;;2.97;;
11921;SDS011;6021;51.182;3.160;2023-08-31T12:57:34;4.77;;;3.27;;
11921;SDS011;6021;51.182;3.160;2023-08-31T13:00:02;5.10;;;3.30;;
11921;SDS011;6021;51.182;3.160;2023-08-31T13:02:35;5.67;;;3.37;;
11921;SDS011;6021;51.182;3.160;2023-08-31T13:05:04;6.60;;;3.90;;
11921;SDS011;6021;51.182;3.160;2023-08-31T13:07:34;5.83;;;3.23;;
11921;SDS011;6021;51.182;3.160;2023-08-31T13:10:05;5.67;;;3.80;;
11921;SDS011;6021;51.182;3.160;2023-08-31T13:12:33;7.43;;;3.90;;
11921;SDS011;6021;51.182;3.160;2023-08-31T13:15:03;5.07;;;3.57;;
11921;SDS011;6021;51.182;3.160;2023-08-31T13:17:34;5.40;;;3.77;;
11921;SDS011;6021;51.182;3.160;2023-08-31T13:20:02;8.93;;;3.97;;
11921;SDS011;6021;51.182;3.160;2023-08-31T13:22:31;7.23;;;3.60;;
11921;SDS011;6021;51.182;3.160;2023-08-31T13:24:59;7.57;;;3.70;;
11921;SDS011;6021;51.182;3.160;2023-08-31T13:27:28;8.30;;;3.50;;
11921;SDS011;6021;51.182;3.160;2023-08-31T13:29:56;5.20;;;3.30;;
11921;SDS011;6021;51.182;3.160;2023-08-31T13:32:24;7.63;;;3.40;;
11921;SDS011;6021;51.182;3.160;2023-08-31T13:34:53;5.43;;;3.57;;
11921;SDS011;6021;51.182;3.160;2023-08-31T13:37:21;6.67;;;3.40;;
11921;SDS011;6021;51.182;3.160;2023-08-31T13:39:50;5.80;;;3.60;;
11921;SDS011;6021;51.182;3.160;2023-08-31T13:42:21;6.07;;;3.40;;
11921;SDS011;6021;51.182;3.160;2023-08-31T13:44:49;5.63;;;3.20;;
11921;SDS011;6021;51.182;3.160;2023-08-31T13:47:18;6.53;;;3.20;;
11921;SDS011;6021;51.182;3.160;2023-08-31T13:49:46;5.50;;;2.97;;
11921;SDS011;6021;51.182;3.160;2023-08-31T13:52:14;6.07;;;3.10;;
11921;SDS011;6021;51.182;3.160;2023-08-31T13:54:43;4.67;;;2.97;;
11921;SDS011;6021;51.182;3.160;2023-08-31T13:57:11;5.13;;;2.70;;
11921;SDS011;6021;51.182;3.160;2023-08-31T13:59:41;3.73;;;2.60;;
11921;SDS011;6021;51.182;3.160;2023-08-31T14:02:10;5.67;;;2.60;;
11921;SDS011;6021;51.182;3.160;2023-08-31T14:04:38;5.60;;;2.60;;
11921;SDS011;6021;51.182;3.160;2023-08-31T14:07:06;4.93;;;2.47;;
11921;SDS011;6021;51.182;3.160;2023-08-31T14:09:35;3.43;;;2.70;;
11921;SDS011;6021;51.182;3.160;2023-08-31T14:12:03;5.37;;;2.60;;
11921;SDS011;6021;51.182;3.160;2023-08-31T14:14:31;4.23;;;2.50;;
11921;SDS011;6021;51.182;3.160;2023-08-31T14:17:00;5.53;;;2.70;;
11921;SDS011;6021;51.182;3.160;2023-08-31T14:19:30;3.57;;;2.50;;
11921;SDS011;6021;51.182;3.160;2023-08-31T14:21:59;6.40;;;3.10;;
11921;SDS011;6021;51.182;3.160;2023-08-31T14:24:29;4.87;;;2.90;;
11921;SDS011;6021;51.182;3.160;2023-08-31T14:26:58;5.20;;;2.73;;
11921;SDS011;6021;51.182;3.160;2023-08-31T14:29:26;6.50;;;2.90;;
11921;SDS011;6021;51.182;3.160;2023-08-31T14:31:56;4.77;;;3.00;;
11921;SDS011;6021;51.182;3.160;2023-08-31T14:34:24;4.17;;;2.57;;
11921;SDS011;6021;51.182;3.160;2023-08-31T14:36:52;7.43;;;2.90;;
11921;SDS011;6021;51.182;3.160;2023-08-31T14:39:22;3.80;;;2.83;;
11921;SDS011;6021;51.182;3.160;2023-08-31T14:41:58;7.87;;;3.40;;
11921;SDS011;6021;51.182;3.160;2023-08-31T14:44:27;6.13;;;3.13;;
11921;SDS011;6021;51.182;3.160;2023-08-31T14:46:55;5.50;;;3.13;;
11921;SDS011;6021;51.182;3.160;2023-08-31T14:49:23;5.77;;;3.00;;
11921;SDS011;6021;51.182;3.160;2023-08-31T14:51:52;7.53;;;3.10;;
11921;SDS011;6021;51.182;3.160;2023-08-31T14:54:20;5.90;;;3.30;;
11921;SDS011;6021;51.182;3.160;2023-08-31T14:56:50;4.33;;;3.07;;
11921;SDS011;6021;51.182;3.160;2023-08-31T14:59:18;5.47;;;3.00;;
11921;SDS011;6021;51.182;3.160;2023-08-31T15:01:46;7.37;;;3.17;;
11921;SDS011;6021;51.182;3.160;2023-08-31T15:04:15;5.17;;;2.93;;
11921;SDS011;6021;51.182;3.160;2023-08-31T15:06:43;5.33;;;3.00;;
11921;SDS011;6021;51.182;3.160;2023-08-31T15:09:11;6.30;;;3.30;;
11921;SDS011;6021;51.182;3.160;2023-08-31T15:11:40;8.33;;;3.43;;
11921;SDS011;6021;51.182;3.160;2023-08-31T15:14:10;6.40;;;3.10;;
11921;SDS011;6021;51.182;3.160;2023-08-31T15:16:39;4.00;;;2.80;;
11921;SDS011;6021;51.182;3.160;2023-08-31T15:19:07;5.57;;;3.00;;
11921;SDS011;6021;51.182;3.160;2023-08-31T15:21:36;6.60;;;3.03;;
11921;SDS011;6021;51.182;3.160;2023-08-31T15:24:04;6.37;;;3.07;;
11921;SDS011;6021;51.182;3.160;2023-08-31T15:26:33;5.00;;;3.13;;
11921;SDS011;6021;51.182;3.160;2023-08-31T15:29:01;7.20;;;3.00;;